Time;durP1;ratioP1;P1;durP2;ratioP2;P2;SDS_P1;SDS_P2;PMS_P1;PMS_P2;Temp;Humidity;BMP_temperature;BMP_pressure;BME280_temperature;BME280_humidity;BME280_pressure;Samples;Min_cycle;Max_cycle;Signal;HPM_P1;HPM_P2
2022/12/17 13:08:18;;;;;;;55.07;30.23;;;-1.30;1.00;;;;;;5038557;28;20727;-61
2022/12/17 13:10:47;;;;;;;55.57;31.03;;;-1.40;1.00;;;;;;5008706;28;20214;-63
2022/12/17 13:13:17;;;;;;;51.13;28.70;;;-1.80;1.00;;;;;;5018379;28;20195;-64
2022/12/17 13:15:48;;;;;;;57.37;31.17;;;-1.60;1.00;;;;;;4998826;28;20208;-62
2022/12/17 13:18:28;;;;;;;59.03;33.57;;;-1.40;1.00;;;;;;5035517;28;20681;-62
2022/12/17 13:20:58;;;;;;;55.87;30.53;;;-1.70;1.00;;;;;;5014521;28;20192;-62
2022/12/17 13:23:35;;;;;;;61.87;32.43;;;-1.70;1.00;;;;;;5039019;28;20760;-61
2022/12/17 13:26:22;;;;;;;59.50;31.83;;;-1.70;1.00;;;;;;5035100;28;20691;-63
2022/12/17 13:28:59;;;;;;;55.30;30.27;;;-1.80;1.00;;;;;;5033250;28;20192;-65
2022/12/17 13:31:30;;;;;;;58.00;30.97;;;-2.10;1.00;;;;;;5015483;28;20207;-61
2022/12/17 13:34:30;;;;;;;67.37;34.17;;;-2.10;1.00;;;;;;5002482;28;20678;-63
2022/12/17 13:37:13;;;;;;;68.77;33.50;;;-2.30;1.00;;;;;;5033047;28;20751;-63
2022/12/17 13:40:03;;;;;;;70.00;34.70;;;-2.60;1.00;;;;;;5013807;28;20208;-64
2022/12/17 13:42:34;;;;;;;61.40;32.10;;;-2.70;1.00;;;;;;5034739;28;20192;-61
2022/12/17 13:45:02;;;;;;;68.90;34.17;;;-3.00;1.00;;;;;;5006716;28;20315;-62
2022/12/17 13:47:32;;;;;;;77.17;35.77;;;-3.10;1.00;;;;;;5011054;28;20270;-63
2022/12/17 13:50:01;;;;;;;72.53;33.80;;;-3.30;1.00;;;;;;5034039;28;20203;-63
2022/12/17 13:52:48;;;;;;;69.73;36.37;;;-3.60;1.00;;;;;;5015148;28;20215;-62
2022/12/17 13:55:25;;;;;;;74.73;36.40;;;-3.70;1.00;;;;;;5035022;28;20218;-61
2022/12/17 13:57:53;;;;;;;75.20;37.77;;;-3.60;1.00;;;;;;5033988;28;20376;-60
2022/12/17 14:00:24;;;;;;;63.73;33.73;;;-3.50;1.00;;;;;;5021559;28;20200;-63
2022/12/17 14:02:52;;;;;;;70.67;37.17;;;-3.40;1.00;;;;;;5031857;28;20188;-61
2022/12/17 14:05:23;;;;;;;66.57;36.17;;;-3.20;1.00;;;;;;5008032;28;20713;-63
2022/12/17 14:07:52;;;;;;;75.83;36.73;;;-3.10;1.00;;;;;;5006856;28;20356;-63
2022/12/17 14:10:20;;;;;;;70.23;36.97;;;-3.30;1.00;;;;;;5014790;28;20639;-62
2022/12/17 14:12:48;;;;;;;69.50;37.40;;;-3.30;1.00;;;;;;5012259;28;20189;-62
2022/12/17 14:15:24;;;;;;;73.43;38.33;;;-3.40;1.00;;;;;;5014412;28;20213;-61
2022/12/17 14:17:53;;;;;;;65.63;33.07;;;-3.90;1.00;;;;;;5009812;28;20280;-62
2022/12/17 14:20:33;;;;;;;72.40;36.73;;;-3.90;1.00;;;;;;5025693;28;20698;-61
2022/12/17 14:23:27;;;;;;;134.27;51.83;;;-4.00;1.00;;;;;;5012949;28;20255;-62
2022/12/17 14:25:56;;;;;;;82.47;38.73;;;-4.10;1.00;;;;;;5022199;28;20223;-61
2022/12/17 14:28:29;;;;;;;67.70;36.37;;;-4.40;1.00;;;;;;5012193;28;20219;-61
2022/12/17 14:31:12;;;;;;;58.60;29.63;;;-4.50;1.00;;;;;;5016525;28;20665;-60
2022/12/17 14:34:07;;;;;;;93.17;38.70;;;-4.60;1.00;;;;;;5014761;28;20215;-60
2022/12/17 14:36:39;;;;;;;62.40;31.90;;;-4.70;1.00;;;;;;5016500;28;20273;-60
2022/12/17 14:39:25;;;;;;;55.80;31.23;;;-4.70;1.00;;;;;;5016214;28;20197;-61
2022/12/17 14:45:21;;;;;;;54.87;30.23;;;-4.60;1.00;;;;;;5014951;28;20208;-62
2022/12/17 14:47:59;;;;;;;55.80;29.77;;;-4.50;1.00;;;;;;5013104;28;20208;-60
2022/12/17 14:50:33;;;;;;;56.13;28.87;;;-4.50;1.00;;;;;;5012870;28;20189;-61
2022/12/17 14:53:03;;;;;;;64.53;30.80;;;-4.50;1.00;;;;;;5010053;28;22434;-62
2022/12/17 14:55:38;;;;;;;61.93;31.17;;;-4.80;1.00;;;;;;5011456;28;20212;-60
2022/12/17 14:58:11;;;;;;;61.50;30.23;;;-4.90;1.00;;;;;;5008440;28;20196;-61
2022/12/17 15:00:44;;;;;;;59.80;32.27;;;-5.00;1.00;;;;;;5019312;28;21177;-59
2022/12/17 15:03:30;;;;;;;66.40;29.33;;;-5.00;1.00;;;;;;4994069;28;20637;-60
2022/12/17 15:06:01;;;;;;;65.40;32.03;;;-5.00;1.00;;;;;;5010378;28;20803;-59
2022/12/17 15:08:32;;;;;;;74.07;28.17;;;-5.20;1.00;;;;;;5007621;28;20192;-60
2022/12/17 15:10:59;;;;;;;75.53;27.97;;;-5.40;1.00;;;;;;5009730;28;20211;-60
2022/12/17 15:13:26;;;;;;;68.47;28.80;;;-5.50;1.00;;;;;;5015513;28;20267;-60
2022/12/17 15:15:53;;;;;;;59.83;28.10;;;-5.50;1.00;;;;;;5011832;28;20208;-59
2022/12/17 15:18:23;;;;;;;94.97;29.43;;;-5.50;1.00;;;;;;5006959;28;20291;-61
2022/12/17 15:20:50;;;;;;;103.37;32.03;;;-5.50;1.00;;;;;;5003862;28;20948;-61
2022/12/17 15:23:21;;;;;;;133.97;31.53;;;-5.70;1.00;;;;;;5011323;28;20544;-62
2022/12/17 15:25:49;;;;;;;83.80;29.97;;;-5.80;1.00;;;;;;5025901;28;20224;-60
2022/12/17 15:28:18;;;;;;;57.10;29.33;;;-5.80;1.00;;;;;;5012118;28;20703;-60
2022/12/17 15:30:46;;;;;;;61.37;29.90;;;-5.70;1.00;;;;;;5011969;28;20205;-61
2022/12/17 15:33:13;;;;;;;63.40;27.23;;;-5.60;1.00;;;;;;5015861;28;20219;-59
2022/12/17 15:35:41;;;;;;;93.57;27.83;;;-5.70;1.00;;;;;;5020168;28;20188;-60
2022/12/17 15:38:10;;;;;;;62.33;30.53;;;-5.80;1.00;;;;;;5016415;28;20621;-60
2022/12/17 15:40:38;;;;;;;45.47;25.33;;;-6.00;1.00;;;;;;5007394;28;20893;-60
2022/12/17 15:43:11;;;;;;;117.13;28.57;;;-6.00;1.00;;;;;;4999883;28;20208;-64
2022/12/17 15:45:43;;;;;;;62.17;28.60;;;-6.10;1.00;;;;;;5007744;28;20284;-61
2022/12/17 15:48:13;;;;;;;116.47;31.67;;;-6.10;1.00;;;;;;5010332;28;21089;-59
2022/12/17 15:50:40;;;;;;;101.97;28.93;;;-6.10;1.00;;;;;;5010624;28;20184;-60
2022/12/17 15:53:08;;;;;;;130.10;29.63;;;-6.20;1.00;;;;;;5014952;28;20602;-60
2022/12/17 15:55:36;;;;;;;99.37;27.93;;;-6.30;1.00;;;;;;5013336;28;20683;-62
2022/12/17 15:58:05;;;;;;;108.90;32.23;;;-6.30;1.00;;;;;;5007001;28;20200;-60
2022/12/17 16:00:32;;;;;;;62.43;30.30;;;-6.30;1.00;;;;;;5009648;28;20235;-60
2022/12/17 16:02:59;;;;;;;69.43;32.23;;;-6.20;1.00;;;;;;5010760;28;20687;-61
2022/12/17 16:05:27;;;;;;;137.43;33.37;;;-6.30;1.00;;;;;;5011951;28;20204;-59
2022/12/17 16:07:57;;;;;;;213.90;34.20;;;-6.30;1.00;;;;;;4991783;28;20272;-64
2022/12/17 16:10:25;;;;;;;156.13;33.50;;;-6.30;9.00;;;;;;4992807;28;20204;-62
2022/12/17 16:12:52;;;;;;;149.47;32.07;;;-6.30;14.50;;;;;;4997094;28;20187;-62
2022/12/17 16:15:18;;;;;;;194.63;34.33;;;-6.40;19.80;;;;;;5018817;28;20196;-62
2022/12/17 16:17:45;;;;;;;83.33;30.23;;;-6.40;25.80;;;;;;5012241;28;20227;-62
2022/12/17 16:20:12;;;;;;;159.83;32.90;;;-6.30;29.80;;;;;;5003782;28;20618;-64
2022/12/17 16:22:41;;;;;;;107.57;31.97;;;-6.40;24.00;;;;;;5010483;28;20864;-62
2022/12/17 16:25:10;;;;;;;72.63;32.10;;;-6.40;27.30;;;;;;4994022;28;20216;-62
2022/12/17 16:27:38;;;;;;;118.50;35.30;;;-6.40;37.20;;;;;;5012543;28;20204;-61
2022/12/17 16:30:06;;;;;;;146.57;33.43;;;-6.30;27.70;;;;;;4992919;28;20263;-62
2022/12/17 16:32:33;;;;;;;280.20;34.43;;;-6.40;35.60;;;;;;5014357;28;20877;-63
2022/12/17 16:35:03;;;;;;;126.23;32.77;;;-6.60;69.00;;;;;;4999115;28;21123;-61
2022/12/17 16:37:30;;;;;;;149.13;35.03;;;-6.50;99.90;;;;;;5015639;28;20742;-63
2022/12/17 16:39:57;;;;;;;62.50;31.37;;;-6.60;99.90;;;;;;5001728;28;20196;-63
2022/12/17 16:42:26;;;;;;;66.40;32.10;;;-6.40;99.90;;;;;;5017188;28;20299;-62
2022/12/17 16:44:53;;;;;;;101.47;35.10;;;-6.40;97.70;;;;;;5007759;28;20630;-62
2022/12/17 16:47:20;;;;;;;70.13;34.53;;;-6.40;50.80;;;;;;4995778;28;20193;-65
2022/12/17 16:49:49;;;;;;;64.47;33.33;;;-6.50;52.10;;;;;;4995660;28;20299;-62
2022/12/17 16:52:16;;;;;;;74.53;33.10;;;-6.50;62.40;;;;;;5016136;28;20188;-62
2022/12/17 16:54:43;;;;;;;167.97;34.33;;;-6.50;51.00;;;;;;5014949;28;20258;-63
2022/12/17 16:57:10;;;;;;;134.90;33.80;;;-6.50;38.70;;;;;;4997438;28;20254;-62
2022/12/17 16:59:37;;;;;;;65.93;31.20;;;-6.60;37.70;;;;;;5015918;28;20212;-62
2022/12/17 17:02:10;;;;;;;232.63;35.30;;;-6.70;39.30;;;;;;5012642;28;20200;-63
2022/12/17 17:04:38;;;;;;;64.27;31.13;;;-6.70;53.00;;;;;;5009897;28;20242;-62
2022/12/17 17:07:05;;;;;;;126.60;32.13;;;-6.70;39.60;;;;;;5035239;28;20187;-62
2022/12/17 17:09:32;;;;;;;65.63;33.40;;;-6.80;49.80;;;;;;5034031;28;20195;-62
2022/12/17 17:11:59;;;;;;;63.20;31.57;;;-6.80;87.50;;;;;;5009942;28;20220;-63
2022/12/17 17:14:26;;;;;;;88.10;31.90;;;-6.80;70.60;;;;;;5018014;28;20193;-63
2022/12/17 17:16:53;;;;;;;88.47;29.13;;;-7.00;55.50;;;;;;5008222;28;20323;-61
2022/12/17 17:19:20;;;;;;;65.10;31.17;;;-7.00;54.00;;;;;;5015730;28;20283;-62
2022/12/17 17:21:50;;;;;;;71.03;34.73;;;-7.00;63.40;;;;;;5016602;28;20204;-63
2022/12/17 17:24:24;;;;;;;66.60;31.40;;;-7.00;92.20;;;;;;5017804;28;20212;-62
2022/12/17 17:26:51;;;;;;;64.53;30.63;;;-7.00;59.30;;;;;;5020073;28;20226;-62
2022/12/17 17:29:18;;;;;;;112.03;39.83;;;-7.00;55.10;;;;;;5034810;28;20187;-62
2022/12/17 17:31:46;;;;;;;90.83;39.00;;;-7.00;45.10;;;;;;5012314;28;20661;-61
2022/12/17 17:34:33;;;;;;;87.20;30.20;;;-7.10;49.80;;;;;;5033300;28;20203;-61
2022/12/17 17:37:00;;;;;;;78.93;31.13;;;-7.00;55.80;;;;;;5036554;28;20725;-63
2022/12/17 17:39:31;;;;;;;130.07;32.27;;;-7.10;46.30;;;;;;5017912;28;20184;-61
2022/12/17 17:41:59;;;;;;;109.07;32.73;;;-7.10;43.40;;;;;;5020554;28;20234;-61
2022/12/17 17:44:26;;;;;;;85.57;30.43;;;-7.20;43.90;;;;;;5019507;28;20220;-61
2022/12/17 17:46:53;;;;;;;149.23;34.03;;;-7.10;52.60;;;;;;5017837;28;21072;-63
2022/12/17 17:49:21;;;;;;;101.60;31.93;;;-7.20;60.00;;;;;;5014169;28;20751;-62
2022/12/17 17:51:48;;;;;;;69.20;34.33;;;-7.20;75.50;;;;;;5035010;28;20224;-62
2022/12/17 17:54:35;;;;;;;61.07;30.67;;;-7.20;76.60;;;;;;5033218;28;20738;-62
2022/12/17 17:57:02;;;;;;;56.07;30.33;;;-7.30;67.20;;;;;;5017492;28;20842;-62
2022/12/17 17:59:29;;;;;;;60.37;29.00;;;-7.40;54.30;;;;;;5018096;28;20192;-62
2022/12/17 18:02:01;;;;;;;66.90;26.40;;;-7.50;47.80;;;;;;5024682;28;20193;-63
2022/12/17 18:04:29;;;;;;;51.30;28.17;;;-7.60;42.30;;;;;;5036084;28;20322;-62
2022/12/17 18:06:56;;;;;;;215.57;31.90;;;-7.60;42.70;;;;;;5017602;28;20184;-62
2022/12/17 18:09:43;;;;;;;188.47;30.47;;;-7.60;38.10;;;;;;5016260;28;20196;-64
2022/12/17 18:14:55;;;;;;;62.57;26.50;;;-7.60;97.80;;;;;;5016846;28;20204;-62
2022/12/17 18:17:49;;;;;;;45.00;25.97;;;-7.60;99.90;;;;;;5034483;28;20646;-62
2022/12/17 18:20:17;;;;;;;51.90;26.70;;;-7.60;99.90;;;;;;5036891;28;20274;-61
2022/12/17 18:22:44;;;;;;;62.13;28.20;;;-7.60;99.90;;;;;;5031248;28;20208;-62
2022/12/17 18:25:13;;;;;;;69.07;29.27;;;-7.60;99.90;;;;;;5016339;28;20207;-64
2022/12/17 18:27:41;;;;;;;65.20;29.47;;;-7.60;97.20;;;;;;5035170;28;20196;-62
2022/12/17 18:30:08;;;;;;;58.57;30.13;;;-7.70;91.80;;;;;;5017608;28;20704;-62
2022/12/17 18:32:35;;;;;;;62.00;31.37;;;-7.70;83.90;;;;;;5034161;28;20184;-62
2022/12/17 18:35:03;;;;;;;85.50;29.83;;;-7.70;77.60;;;;;;5012986;28;20196;-63
2022/12/17 18:37:30;;;;;;;53.53;28.23;;;-7.80;72.30;;;;;;5030450;28;20258;-62
2022/12/17 18:39:57;;;;;;;52.67;29.13;;;-7.80;82.80;;;;;;5035323;28;20199;-64
2022/12/17 18:45:09;;;;;;;57.07;30.17;;;-7.80;78.60;;;;;;5035932;28;20215;-62
2022/12/17 18:47:36;;;;;;;63.33;28.83;;;-7.90;78.80;;;;;;5013975;28;20214;-61
2022/12/17 18:50:03;;;;;;;71.90;30.30;;;-7.90;77.40;;;;;;5018546;28;20188;-60
2022/12/17 18:52:30;;;;;;;67.53;31.27;;;-7.90;77.80;;;;;;5007179;28;20217;-63
2022/12/17 18:54:57;;;;;;;62.43;32.97;;;-8.00;84.50;;;;;;5018413;28;20450;-61
2022/12/17 18:57:24;;;;;;;65.33;32.23;;;-8.00;88.80;;;;;;5032368;28;20204;-62
2022/12/17 18:59:53;;;;;;;57.73;31.83;;;-8.00;89.70;;;;;;5033847;28;20204;-63
2022/12/17 19:02:20;;;;;;;60.53;30.43;;;-8.10;75.50;;;;;;5022415;28;20222;-64
2022/12/17 19:04:47;;;;;;;67.90;33.30;;;-8.00;68.70;;;;;;5034330;28;20232;-62
2022/12/17 19:07:14;;;;;;;63.73;31.37;;;-8.10;57.00;;;;;;5007546;28;20187;-62
2022/12/17 19:09:41;;;;;;;63.03;32.13;;;-8.10;52.20;;;;;;5016749;28;20196;-62
2022/12/17 19:12:09;;;;;;;69.20;36.53;;;-8.20;48.80;;;;;;5016761;28;20196;-62
2022/12/17 19:14:36;;;;;;;68.50;33.57;;;-8.20;44.00;;;;;;5009068;28;20823;-61
2022/12/17 19:17:04;;;;;;;62.13;34.83;;;-8.30;37.60;;;;;;5032076;28;20204;-63
2022/12/17 19:19:31;;;;;;;60.83;33.50;;;-8.30;35.70;;;;;;5035867;28;20201;-62
2022/12/17 19:21:59;;;;;;;65.97;34.40;;;-8.30;31.00;;;;;;5034362;28;20206;-62
2022/12/17 19:24:26;;;;;;;63.47;32.90;;;-8.30;30.60;;;;;;5035913;28;20389;-63
2022/12/17 19:26:54;;;;;;;83.47;42.53;;;-8.40;25.30;;;;;;5035025;28;20598;-62
2022/12/17 19:29:21;;;;;;;75.67;38.10;;;-8.30;26.10;;;;;;5034305;28;20198;-62
2022/12/17 19:31:48;;;;;;;70.10;34.50;;;-8.30;25.30;;;;;;5032973;28;20558;-63
2022/12/17 19:34:17;;;;;;;79.53;36.07;;;-8.30;23.60;;;;;;5032185;28;20188;-62
2022/12/17 19:36:44;;;;;;;64.90;34.33;;;-8.30;24.30;;;;;;5016482;28;20597;-63
2022/12/17 19:39:15;;;;;;;67.20;36.97;;;-8.40;22.90;;;;;;5014697;28;20218;-62
2022/12/17 19:41:42;;;;;;;108.83;52.87;;;-8.50;24.10;;;;;;5016851;28;20682;-62
2022/12/17 19:44:14;;;;;;;68.67;37.30;;;-8.50;22.20;;;;;;5035583;28;20845;-61
2022/12/17 19:46:42;;;;;;;79.37;42.73;;;-8.50;23.60;;;;;;5035320;28;20642;-60
2022/12/17 19:49:14;;;;;;;74.77;38.10;;;-8.50;17.30;;;;;;5038035;28;20703;-62
2022/12/17 19:51:42;;;;;;;69.87;36.57;;;-8.50;15.60;;;;;;5039781;28;20274;-61
2022/12/17 19:54:13;;;;;;;72.97;37.27;;;-8.50;14.40;;;;;;5020786;28;20202;-59
2022/12/17 19:56:42;;;;;;;67.13;35.80;;;-8.50;2.30;;;;;;5038676;28;20191;-60
2022/12/17 19:59:11;;;;;;;66.57;34.97;;;-8.60;1.00;;;;;;5037935;28;20200;-60
2022/12/17 20:01:44;;;;;;;62.67;32.80;;;-8.60;1.00;;;;;;5038516;28;20279;-63
2022/12/17 20:04:14;;;;;;;72.10;34.83;;;-8.60;1.00;;;;;;5020313;28;20246;-60
2022/12/17 20:06:42;;;;;;;60.10;32.37;;;-8.70;1.00;;;;;;5022682;28;20221;-65
2022/12/17 20:09:09;;;;;;;67.07;35.50;;;-8.70;1.00;;;;;;5039493;28;20192;-61
2022/12/17 20:11:36;;;;;;;66.63;33.53;;;-8.70;1.00;;;;;;5020196;28;20184;-60
2022/12/17 20:14:05;;;;;;;59.97;33.57;;;-8.80;1.00;;;;;;5038200;28;20199;-61
2022/12/17 20:16:35;;;;;;;62.33;32.83;;;-8.80;1.00;;;;;;5038374;28;20707;-60
2022/12/17 20:19:04;;;;;;;61.27;31.53;;;-8.80;1.00;;;;;;5035599;28;20203;-62
2022/12/17 20:21:31;;;;;;;58.77;31.47;;;-8.80;1.00;;;;;;5036678;28;20744;-62
2022/12/17 20:23:58;;;;;;;60.03;30.93;;;-8.80;1.00;;;;;;5027313;28;20603;-61
2022/12/17 20:26:25;;;;;;;67.67;32.10;;;-8.70;1.00;;;;;;5039011;28;20215;-61
2022/12/17 20:28:54;;;;;;;64.90;33.83;;;-8.70;1.00;;;;;;5037643;28;20195;-62
2022/12/17 20:31:21;;;;;;;60.60;31.87;;;-8.70;1.00;;;;;;5035436;28;20195;-61
2022/12/17 20:33:48;;;;;;;59.50;32.23;;;-8.80;1.00;;;;;;5021867;28;20197;-60
2022/12/17 20:36:18;;;;;;;60.33;33.13;;;-8.80;1.00;;;;;;5004163;28;20295;-61
2022/12/17 20:38:45;;;;;;;60.23;32.00;;;-8.80;1.00;;;;;;5036737;28;20203;-63
2022/12/17 20:41:18;;;;;;;62.40;33.07;;;-8.80;1.00;;;;;;5018202;28;20257;-64
2022/12/17 20:43:45;;;;;;;64.77;34.57;;;-8.80;1.00;;;;;;5035604;28;20211;-61
2022/12/17 20:46:12;;;;;;;52.87;31.70;;;-8.80;1.00;;;;;;5015633;28;20201;-62
2022/12/17 20:48:41;;;;;;;58.50;31.53;;;-8.80;1.00;;;;;;5036669;28;20250;-62
2022/12/17 20:51:13;;;;;;;55.50;30.77;;;-8.70;1.00;;;;;;5035633;28;20670;-64
2022/12/17 20:53:41;;;;;;;57.33;29.63;;;-8.70;1.00;;;;;;5019448;28;20211;-62
2022/12/17 20:56:14;;;;;;;54.83;30.63;;;-8.80;1.00;;;;;;5012282;28;20668;-63
2022/12/17 20:58:42;;;;;;;54.07;29.37;;;-8.90;1.00;;;;;;5020960;28;20203;-62
2022/12/17 21:01:14;;;;;;;56.40;30.60;;;-8.90;1.00;;;;;;5019767;28;20199;-60
2022/12/17 21:03:42;;;;;;;56.93;31.83;;;-8.90;1.00;;;;;;5011254;28;20247;-61
2022/12/17 21:06:19;;;;;;;60.50;31.13;;;-9.00;1.00;;;;;;5019621;28;20200;-62
2022/12/17 21:08:48;;;;;;;60.07;29.57;;;-9.00;1.00;;;;;;5037313;28;20714;-63
2022/12/17 21:11:22;;;;;;;56.40;30.23;;;-9.00;1.00;;;;;;5034811;28;20196;-61
2022/12/17 21:13:49;;;;;;;56.23;30.33;;;-9.00;1.00;;;;;;5035030;28;20622;-62
2022/12/17 21:16:26;;;;;;;57.17;30.90;;;-9.00;1.00;;;;;;5018644;28;20230;-63
2022/12/17 21:18:54;;;;;;;57.93;31.27;;;-8.90;1.00;;;;;;5038799;28;20413;-65
2022/12/17 21:21:25;;;;;;;54.90;28.40;;;-8.90;1.00;;;;;;5027151;28;20193;-62
2022/12/17 21:23:52;;;;;;;60.93;32.40;;;-9.00;1.00;;;;;;5002888;28;20196;-61
2022/12/17 21:26:22;;;;;;;54.77;30.50;;;-9.00;1.00;;;;;;5036322;28;20914;-60
2022/12/17 21:28:52;;;;;;;58.13;30.03;;;-9.10;1.00;;;;;;5036273;28;20200;-60
2022/12/17 21:31:26;;;;;;;54.63;30.83;;;-9.20;1.00;;;;;;5018428;28;20283;-64
2022/12/17 21:33:57;;;;;;;55.30;30.20;;;-9.20;1.00;;;;;;5037586;28;20191;-63
2022/12/17 21:36:27;;;;;;;63.87;34.43;;;-9.20;1.00;;;;;;5011973;28;20210;-63
2022/12/17 21:38:54;;;;;;;63.13;36.27;;;-9.20;1.00;;;;;;5018914;28;20192;-62
2022/12/17 21:41:31;;;;;;;67.77;36.80;;;-9.30;1.00;;;;;;5018603;28;20287;-62
2022/12/17 21:44:01;;;;;;;64.20;33.17;;;-9.30;1.00;;;;;;5020010;28;20209;-61
2022/12/17 21:46:28;;;;;;;58.93;30.40;;;-9.30;1.00;;;;;;5018411;28;20795;-66
2022/12/17 21:48:57;;;;;;;50.87;29.77;;;-9.30;1.00;;;;;;5017882;28;20508;-62
2022/12/17 21:51:24;;;;;;;53.90;30.10;;;-9.20;1.00;;;;;;5036425;28;20195;-62
2022/12/17 21:53:57;;;;;;;58.37;30.03;;;-9.30;1.00;;;;;;5036168;28;20188;-62
2022/12/17 21:56:25;;;;;;;51.33;29.67;;;-9.30;1.00;;;;;;5019230;28;20526;-62
2022/12/17 21:58:58;;;;;;;53.30;29.33;;;-9.40;1.00;;;;;;5018411;28;20742;-62
2022/12/17 22:01:27;;;;;;;55.90;30.40;;;-9.40;1.00;;;;;;5017658;28;20250;-61
2022/12/17 22:03:57;;;;;;;60.17;34.37;;;-9.40;1.00;;;;;;5019219;28;20485;-63
2022/12/17 22:06:26;;;;;;;60.43;31.10;;;-9.40;1.00;;;;;;5018489;28;20235;-63
2022/12/17 22:08:57;;;;;;;61.07;32.77;;;-9.40;1.00;;;;;;5034464;28;20187;-62
2022/12/17 22:11:34;;;;;;;53.53;30.47;;;-9.40;1.00;;;;;;5008592;28;20753;-63
2022/12/17 22:14:02;;;;;;;52.83;30.33;;;-9.40;1.00;;;;;;5018394;28;20693;-62
2022/12/17 22:16:45;;;;;;;49.63;28.20;;;-9.50;1.00;;;;;;5018054;28;20228;-62
2022/12/17 22:19:19;;;;;;;52.67;29.27;;;-9.50;1.00;;;;;;5034740;28;20382;-64
2022/12/17 22:21:50;;;;;;;55.97;29.10;;;-9.50;1.00;;;;;;5033533;28;20729;-62
2022/12/17 22:24:24;;;;;;;52.93;32.00;;;-9.50;1.00;;;;;;5018895;28;20249;-62
2022/12/17 22:26:58;;;;;;;48.77;28.07;;;-9.40;1.00;;;;;;5034760;28;20578;-63
2022/12/17 22:34:58;;;;;;;42.93;26.20;;;-9.50;1.00;;;;;;5032539;28;21019;-64
2022/12/17 22:37:46;;;;;;;52.07;26.17;;;-9.50;1.00;;;;;;5033833;28;20256;-62
2022/12/17 22:40:34;;;;;;;44.23;25.63;;;-9.60;1.00;;;;;;5017618;28;20740;-62
2022/12/17 22:43:30;;;;;;;47.40;25.70;;;-9.70;1.00;;;;;;5019042;28;20202;-63
2022/12/17 22:46:18;;;;;;;51.03;28.30;;;-9.70;1.00;;;;;;5034391;28;20236;-62
2022/12/17 22:48:45;;;;;;;65.80;30.87;;;-9.70;1.00;;;;;;5015333;28;20180;-63
2022/12/17 22:51:13;;;;;;;51.57;28.33;;;-9.60;1.00;;;;;;5018200;28;20207;-62
2022/12/17 22:53:58;;;;;;;54.50;27.60;;;-9.60;1.00;;;;;;5004435;28;20698;-62
2022/12/17 22:56:26;;;;;;;46.47;27.27;;;-9.70;1.00;;;;;;5033188;28;20201;-61
2022/12/17 22:59:17;;;;;;;51.97;29.77;;;-9.60;1.00;;;;;;5033934;28;20210;-65
2022/12/17 23:01:44;;;;;;;49.97;27.33;;;-9.60;1.00;;;;;;5014734;28;20192;-63
2022/12/17 23:04:14;;;;;;;121.73;41.20;;;-9.70;1.00;;;;;;5019276;28;20704;-62
2022/12/17 23:06:46;;;;;;;101.50;37.00;;;-9.70;1.00;;;;;;5018518;28;20205;-62
2022/12/17 23:09:17;;;;;;;57.97;32.20;;;-9.70;1.00;;;;;;5018595;28;20192;-64
2022/12/17 23:11:46;;;;;;;55.97;28.53;;;-9.70;1.00;;;;;;4995106;28;20220;-62
2022/12/17 23:14:14;;;;;;;60.30;30.07;;;-9.70;1.00;;;;;;5017485;28;20184;-63
2022/12/17 23:16:41;;;;;;;58.93;27.43;;;-9.70;1.00;;;;;;5034536;28;20228;-61
2022/12/17 23:19:09;;;;;;;63.37;29.20;;;-9.80;1.00;;;;;;5037105;28;20187;-61
2022/12/17 23:21:36;;;;;;;112.77;41.37;;;-10.00;1.00;;;;;;5017429;28;20555;-62
2022/12/17 23:24:04;;;;;;;60.53;27.57;;;-10.00;1.00;;;;;;5024307;28;20208;-62
2022/12/17 23:26:33;;;;;;;44.07;24.83;;;-10.00;1.00;;;;;;5033634;28;20222;-64
2022/12/17 23:29:04;;;;;;;48.47;24.80;;;-10.00;1.00;;;;;;5033840;28;20201;-62
2022/12/17 23:31:34;;;;;;;53.17;26.10;;;-10.00;1.00;;;;;;5033872;28;20554;-62
2022/12/17 23:34:01;;;;;;;44.57;25.30;;;-10.00;1.00;;;;;;5034607;28;20279;-61
2022/12/17 23:36:29;;;;;;;48.97;25.40;;;-10.00;1.00;;;;;;5036176;28;20274;-63
2022/12/17 23:38:56;;;;;;;48.80;24.63;;;-10.00;1.00;;;;;;5000881;28;20195;-63
2022/12/17 23:41:26;;;;;;;43.57;24.63;;;-10.00;1.00;;;;;;5017448;28;20283;-62
2022/12/17 23:43:53;;;;;;;60.07;27.63;;;-10.00;1.00;;;;;;5017426;28;20206;-62
2022/12/17 23:46:22;;;;;;;51.43;28.40;;;-10.00;1.00;;;;;;5032849;28;20217;-62
2022/12/17 23:48:49;;;;;;;43.27;24.27;;;-10.00;1.00;;;;;;5018095;28;20718;-62
2022/12/17 23:51:19;;;;;;;47.40;25.50;;;-10.00;1.00;;;;;;5035022;28;20199;-62
2022/12/17 23:53:46;;;;;;;53.17;26.67;;;-9.90;1.00;;;;;;5016715;28;20772;-63
2022/12/17 23:56:22;;;;;;;47.83;24.40;;;-10.00;1.00;;;;;;5034531;28;20212;-62
2022/12/17 23:58:58;;;;;;;42.53;24.17;;;-10.00;1.00;;;;;;5016255;28;20241;-62
